createdAt,value
2023-05-05T00:01:05.753Z,50.20
2023-05-05T00:03:36.154Z,50.15
2023-05-05T00:06:08.349Z,50.26
2023-05-05T00:08:37.817Z,50.37
2023-05-05T00:11:06.833Z,50.38
2023-05-05T00:13:36.145Z,50.22
2023-05-05T00:16:05.253Z,50.12
2023-05-05T00:18:34.460Z,50.30
2023-05-05T00:21:04.968Z,50.26
2023-05-05T00:23:34.307Z,49.97
2023-05-05T00:26:02.981Z,50.13
2023-05-05T00:28:31.815Z,49.99
2023-05-05T00:31:00.776Z,49.88
2023-05-05T00:33:29.782Z,49.99
2023-05-05T00:35:58.203Z,50.07
2023-05-05T00:38:27.623Z,50.06
2023-05-05T00:40:56.298Z,49.82
2023-05-05T00:43:25.207Z,49.85
2023-05-05T00:46:03.245Z,49.96
2023-05-05T00:48:32.306Z,49.85
2023-05-05T00:51:01.105Z,49.78
2023-05-05T00:53:29.936Z,49.72
2023-05-05T00:55:58.443Z,49.72
2023-05-05T00:58:27.706Z,49.85
2023-05-05T01:00:56.686Z,49.86
2023-05-05T01:03:25.579Z,49.86
2023-05-05T01:06:25.295Z,49.81
2023-05-05T01:09:28.961Z,49.95
2023-05-05T01:12:27.825Z,49.92
2023-05-05T01:15:15.988Z,49.81
2023-05-05T01:17:57.056Z,49.96
2023-05-05T01:20:49.924Z,49.93
2023-05-05T01:23:57.505Z,49.89
2023-05-05T01:26:51.545Z,50.06
2023-05-05T01:30:18.032Z,49.85
2023-05-05T01:32:57.124Z,49.96
2023-05-05T01:35:56.564Z,49.99
2023-05-05T01:38:37.301Z,49.89
2023-05-05T01:41:17.805Z,50.07
2023-05-05T01:43:50.183Z,49.87
2023-05-05T01:46:19.336Z,49.78
2023-05-05T01:48:48.541Z,49.88
2023-05-05T01:51:18.391Z,49.98
2023-05-05T01:53:47.547Z,49.99
2023-05-05T01:56:16.622Z,49.83
2023-05-05T01:58:45.770Z,49.87
2023-05-05T02:01:14.368Z,49.80
2023-05-05T02:03:43.384Z,49.91
2023-05-05T02:06:11.959Z,49.96
2023-05-05T02:08:40.920Z,49.73
2023-05-05T02:11:10.308Z,49.99
2023-05-05T02:13:39.973Z,49.92
2023-05-05T02:16:08.629Z,49.88
2023-05-05T02:18:39.166Z,49.91
2023-05-05T02:21:08.192Z,49.89
2023-05-05T02:23:37.037Z,49.85
2023-05-05T02:26:10.145Z,49.71
2023-05-05T02:29:08.712Z,49.75
2023-05-05T02:31:44.373Z,49.89
2023-05-05T02:34:14.137Z,49.75
2023-05-05T02:36:42.797Z,49.86
2023-05-05T02:39:26.295Z,49.99
2023-05-05T02:41:55.467Z,49.85
2023-05-05T02:44:28.285Z,49.87
2023-05-05T02:46:58.085Z,49.81
2023-05-05T02:49:27.341Z,49.71
2023-05-05T02:52:01.276Z,49.75
2023-05-05T02:54:36.215Z,49.68
2023-05-05T02:57:11.659Z,49.76
2023-05-05T03:00:17.185Z,49.83
2023-05-05T03:02:57.954Z,49.67
2023-05-05T03:05:32.139Z,49.75
2023-05-05T03:09:06.691Z,49.62
2023-05-05T03:11:47.157Z,49.68
2023-05-05T03:14:19.350Z,49.53
2023-05-05T03:16:50.273Z,49.51
2023-05-05T03:19:19.464Z,49.56
2023-05-05T03:21:52.664Z,49.42
2023-05-05T03:24:21.706Z,49.69
2023-05-05T03:26:59.322Z,49.49
2023-05-05T03:29:34.321Z,49.68
2023-05-05T03:32:04.999Z,49.34
2023-05-05T03:34:37.506Z,49.61
2023-05-05T03:37:07.726Z,49.52
2023-05-05T03:39:36.332Z,49.43
2023-05-05T03:42:06.209Z,49.27
2023-05-05T03:44:36.808Z,49.28
2023-05-05T03:47:06.080Z,49.51
2023-05-05T03:49:38.384Z,49.33
2023-05-05T03:52:07.562Z,49.49
2023-05-05T03:54:36.959Z,49.46
2023-05-05T03:57:05.827Z,49.29
2023-05-05T03:59:34.402Z,49.54
2023-05-05T04:02:03.493Z,49.45
2023-05-05T04:04:32.521Z,49.45
2023-05-05T04:07:01.606Z,49.31
2023-05-05T04:09:30.175Z,49.38
2023-05-05T04:11:59.445Z,49.43
2023-05-05T04:14:29.258Z,49.16
2023-05-05T04:16:58.436Z,49.40
2023-05-05T04:19:27.026Z,49.51
2023-05-05T04:21:56.005Z,49.35
2023-05-05T04:24:25.288Z,49.37
2023-05-05T04:26:56.976Z,49.37
2023-05-05T04:29:26.246Z,49.36
2023-05-05T04:31:56.344Z,49.50
2023-05-05T04:34:25.194Z,49.48
2023-05-05T04:36:54.494Z,49.02
2023-05-05T04:39:23.177Z,48.92
2023-05-05T04:41:52.476Z,48.87
2023-05-05T04:44:21.211Z,49.02
2023-05-05T04:46:50.680Z,49.14
2023-05-05T04:49:19.348Z,49.14
2023-05-05T04:51:48.327Z,49.01
2023-05-05T04:54:16.868Z,49.16
2023-05-05T04:56:45.816Z,49.16
2023-05-05T04:59:15.589Z,49.17
2023-05-05T05:01:44.580Z,49.13
2023-05-05T05:04:14.195Z,49.20
2023-05-05T05:06:43.267Z,49.12
2023-05-05T05:09:12.335Z,49.14
2023-05-05T05:11:41.245Z,48.99
2023-05-05T05:14:09.809Z,49.28
2023-05-05T05:16:39.467Z,49.37
2023-05-05T05:19:08.171Z,49.16
2023-05-05T05:21:37.143Z,49.16
2023-05-05T05:24:05.997Z,49.16
2023-05-05T05:26:34.943Z,50.41
2023-05-05T05:29:04.886Z,50.70
2023-05-05T05:31:34.687Z,51.79
2023-05-05T05:34:03.994Z,52.61
2023-05-05T05:36:33.424Z,52.87
2023-05-05T05:39:02.111Z,53.03
2023-05-05T05:41:31.224Z,52.90
2023-05-05T05:44:00.176Z,52.86
2023-05-05T05:46:30.048Z,52.72
2023-05-05T05:48:59.942Z,53.20
2023-05-05T05:51:29.125Z,52.95
2023-05-05T05:53:59.034Z,52.77
2023-05-05T05:56:28.431Z,52.66
2023-05-05T05:58:57.421Z,52.04
2023-05-05T06:01:26.473Z,52.12
2023-05-05T06:03:55.521Z,52.27
2023-05-05T06:06:24.601Z,52.05
2023-05-05T06:08:53.229Z,51.78
2023-05-05T06:11:22.526Z,51.75
2023-05-05T06:13:51.268Z,51.71
2023-05-05T06:16:20.591Z,51.68
2023-05-05T06:18:50.784Z,51.80
2023-05-05T06:21:20.921Z,51.48
2023-05-05T06:23:49.763Z,51.64
2023-05-05T06:26:21.751Z,51.37
2023-05-05T06:28:50.625Z,51.20
2023-05-05T06:31:19.525Z,51.39
2023-05-05T06:33:48.101Z,51.56
2023-05-05T06:36:16.956Z,51.73
2023-05-05T06:38:45.587Z,51.12
2023-05-05T06:41:14.527Z,51.52
2023-05-05T06:43:44.484Z,51.27
2023-05-05T06:46:16.024Z,51.78
2023-05-05T06:48:44.677Z,52.64
2023-05-05T06:51:13.566Z,52.19
2023-05-05T06:53:42.374Z,52.46
2023-05-05T06:56:11.763Z,51.98
2023-05-05T06:58:40.385Z,52.19
2023-05-05T07:01:09.815Z,52.47
2023-05-05T07:03:38.485Z,52.74
2023-05-05T07:06:07.492Z,52.78
2023-05-05T07:08:36.123Z,52.60
2023-05-05T07:11:05.005Z,52.54
2023-05-05T07:13:33.601Z,52.78
2023-05-05T07:16:02.511Z,51.27
2023-05-05T07:18:31.004Z,50.62
2023-05-05T07:20:59.917Z,50.41
2023-05-05T07:23:28.506Z,50.18
2023-05-05T07:25:57.409Z,50.55
2023-05-05T07:28:26.686Z,50.51
2023-05-05T07:30:55.582Z,50.39
2023-05-05T07:33:24.088Z,50.40
2023-05-05T07:35:52.967Z,50.51
2023-05-05T07:38:21.550Z,50.47
2023-05-05T07:40:50.476Z,50.51
2023-05-05T07:43:19.118Z,50.57
2023-05-05T07:45:48.141Z,50.76
2023-05-05T07:48:16.901Z,50.83
2023-05-05T07:50:45.831Z,50.59
2023-05-05T07:53:15.408Z,50.76
2023-05-05T07:55:44.413Z,50.59
2023-05-05T07:58:13.010Z,50.55
2023-05-05T08:00:44.181Z,50.55
2023-05-05T08:03:13.269Z,50.48
2023-05-05T08:06:12.471Z,50.49
2023-05-05T08:08:40.892Z,50.48
2023-05-05T08:11:09.773Z,50.34
2023-05-05T08:13:39.376Z,50.19
2023-05-05T08:16:08.484Z,50.40
2023-05-05T08:18:38.569Z,50.25
2023-05-05T08:21:09.438Z,49.87
2023-05-05T08:23:38.873Z,50.11
2023-05-05T08:26:09.385Z,49.82
2023-05-05T08:28:37.889Z,50.14
2023-05-05T08:31:07.115Z,49.80
2023-05-05T08:33:35.712Z,50.07
2023-05-05T08:36:05.810Z,50.18
2023-05-05T08:38:34.349Z,50.32
2023-05-05T08:41:03.933Z,50.13
2023-05-05T08:43:32.994Z,49.96
2023-05-05T08:46:01.793Z,49.63
2023-05-05T08:48:30.219Z,49.50
2023-05-05T08:51:01.390Z,49.54
2023-05-05T08:53:47.401Z,48.68
2023-05-05T08:56:16.411Z,47.48
2023-05-05T08:58:44.976Z,47.54
2023-05-05T09:01:14.444Z,47.41
2023-05-05T09:03:43.645Z,47.17
2023-05-05T09:06:12.610Z,46.67
2023-05-05T09:08:41.780Z,46.39
2023-05-05T09:11:10.736Z,45.91
2023-05-05T09:13:47.892Z,45.36
2023-05-05T09:16:16.944Z,45.21
2023-05-05T09:18:45.773Z,44.98
2023-05-05T09:21:25.017Z,44.58
2023-05-05T09:24:12.738Z,43.83
2023-05-05T09:26:46.927Z,43.93
2023-05-05T09:29:22.170Z,44.14
2023-05-05T09:32:11.073Z,43.92
2023-05-05T09:34:39.702Z,43.61
2023-05-05T09:37:08.582Z,43.45
2023-05-05T09:39:37.211Z,42.95
2023-05-05T09:42:06.336Z,42.38
2023-05-05T09:44:36.562Z,42.62
2023-05-05T09:47:09.643Z,42.95
2023-05-05T09:49:58.154Z,42.98
2023-05-05T09:52:27.263Z,43.04
2023-05-05T09:54:57.339Z,43.17
2023-05-05T09:57:34.070Z,43.06
2023-05-05T10:00:04.530Z,43.05
2023-05-05T10:02:38.759Z,43.05
2023-05-05T10:05:14.956Z,42.90
2023-05-05T10:07:45.991Z,43.07
2023-05-05T10:10:18.721Z,43.05
2023-05-05T10:12:48.075Z,43.20
2023-05-05T10:15:17.048Z,43.17
2023-05-05T10:20:21.027Z,43.28
2023-05-05T10:22:53.665Z,43.43
2023-05-05T10:25:29.774Z,43.56
2023-05-05T10:28:01.845Z,43.55
2023-05-05T10:30:32.387Z,43.28
2023-05-05T10:33:27.328Z,43.32
2023-05-05T10:35:56.824Z,43.35
2023-05-05T10:38:26.798Z,43.42
2023-05-05T10:40:55.870Z,43.58
2023-05-05T10:43:25.035Z,43.38
2023-05-05T10:45:53.972Z,43.12
2023-05-05T10:48:38.631Z,43.17
2023-05-05T10:51:35.940Z,43.42
2023-05-05T10:54:17.461Z,43.23
2023-05-05T10:56:46.268Z,43.17
2023-05-05T10:59:37.383Z,43.34
2023-05-05T11:02:28.536Z,43.29
2023-05-05T11:05:21.761Z,43.23
2023-05-05T11:07:51.968Z,43.46
2023-05-05T11:10:21.380Z,43.22
2023-05-05T11:13:13.357Z,43.45
2023-05-05T11:15:42.723Z,43.25
2023-05-05T11:18:43.603Z,42.94
2023-05-05T11:21:19.012Z,43.22
2023-05-05T11:23:51.675Z,43.35
2023-05-05T11:26:51.495Z,42.81
2023-05-05T11:29:20.296Z,42.75
2023-05-05T11:32:18.417Z,42.94
2023-05-05T11:34:50.941Z,42.95
2023-05-05T11:37:22.784Z,43.02
2023-05-05T11:40:04.589Z,42.69
2023-05-05T11:42:33.721Z,42.85
2023-05-05T11:45:02.461Z,42.41
2023-05-05T11:47:31.860Z,42.70
2023-05-05T11:50:17.116Z,42.75
2023-05-05T11:52:46.307Z,42.92
2023-05-05T11:55:20.119Z,43.30
2023-05-05T11:57:49.449Z,43.39
2023-05-05T12:00:18.556Z,43.48
2023-05-05T12:02:47.948Z,43.43
2023-05-05T12:05:20.442Z,43.62
2023-05-05T12:07:49.561Z,43.79
2023-05-05T12:10:23.926Z,43.81
2023-05-05T12:12:55.392Z,43.93
2023-05-05T12:15:33.888Z,43.96
2023-05-05T12:18:03.465Z,44.05
2023-05-05T12:20:33.361Z,43.98
2023-05-05T12:23:03.386Z,44.12
2023-05-05T12:25:39.477Z,44.16
2023-05-05T12:28:09.023Z,44.17
2023-05-05T12:30:37.887Z,44.13
2023-05-05T12:33:07.929Z,44.22
2023-05-05T12:35:36.702Z,43.95
2023-05-05T12:38:06.175Z,43.84
2023-05-05T12:40:54.168Z,43.83
2023-05-05T12:43:27.312Z,43.77
2023-05-05T12:46:10.752Z,43.03
2023-05-05T12:48:41.013Z,42.23
2023-05-05T12:51:12.749Z,42.30
2023-05-05T12:53:41.831Z,42.61
2023-05-05T12:56:39.316Z,42.77
2023-05-05T12:59:09.571Z,41.79
2023-05-05T13:01:54.743Z,41.76
2023-05-05T13:04:24.677Z,41.63
2023-05-05T13:07:09.280Z,41.61
2023-05-05T13:09:38.276Z,41.54
2023-05-05T13:12:09.045Z,41.54
2023-05-05T13:14:38.683Z,41.61
2023-05-05T13:17:07.455Z,41.29
2023-05-05T13:19:42.171Z,41.10
2023-05-05T13:22:10.874Z,41.11
2023-05-05T13:24:50.631Z,41.22
2023-05-05T13:27:21.235Z,40.74
2023-05-05T13:29:50.332Z,41.25
2023-05-05T13:32:18.977Z,41.36
2023-05-05T13:34:47.884Z,41.54
2023-05-05T13:37:16.494Z,41.61
2023-05-05T13:39:45.507Z,41.62
2023-05-05T13:42:14.133Z,41.54
2023-05-05T13:44:43.073Z,41.53
2023-05-05T13:47:11.726Z,41.51
2023-05-05T13:49:40.766Z,41.57
2023-05-05T13:52:09.425Z,41.90
2023-05-05T13:54:38.400Z,41.95
2023-05-05T13:57:08.274Z,41.79
2023-05-05T13:59:37.313Z,41.76
2023-05-05T14:02:06.407Z,41.45
2023-05-05T14:04:35.488Z,41.00
2023-05-05T14:07:05.024Z,41.08
2023-05-05T14:09:34.074Z,41.04
2023-05-05T14:12:03.737Z,40.91
2023-05-05T14:14:32.703Z,40.95
2023-05-05T14:17:01.439Z,40.67
2023-05-05T14:19:31.212Z,40.93
2023-05-05T14:21:59.906Z,41.06
2023-05-05T14:24:28.906Z,40.83
2023-05-05T14:26:57.553Z,40.83
2023-05-05T14:29:26.887Z,41.19
2023-05-05T14:31:55.658Z,41.00
2023-05-05T14:34:24.663Z,41.01
2023-05-05T14:36:53.371Z,40.78
2023-05-05T14:39:22.398Z,40.57
2023-05-05T14:41:51.221Z,40.50
2023-05-05T14:44:20.313Z,40.56
2023-05-05T14:46:50.488Z,39.83
2023-05-05T14:49:20.153Z,39.67
2023-05-05T14:51:48.904Z,39.68
2023-05-05T14:54:27.366Z,39.87
2023-05-05T14:56:57.127Z,39.68
2023-05-05T14:59:27.759Z,39.65
2023-05-05T15:01:57.271Z,39.50
2023-05-05T15:04:26.563Z,39.41
2023-05-05T15:06:55.244Z,39.75
2023-05-05T15:09:24.278Z,39.55
2023-05-05T15:11:53.179Z,39.18
2023-05-05T15:14:22.346Z,39.11
2023-05-05T15:16:51.892Z,39.30
2023-05-05T15:19:21.026Z,39.13
2023-05-05T15:21:53.375Z,39.07
2023-05-05T15:24:22.412Z,39.07
2023-05-05T15:26:51.360Z,38.93
2023-05-05T15:29:20.362Z,39.14
2023-05-05T15:31:49.064Z,39.30
2023-05-05T15:34:18.279Z,39.39
2023-05-05T15:36:46.851Z,39.53
2023-05-05T15:39:15.918Z,39.49
2023-05-05T15:41:44.630Z,39.50
2023-05-05T15:44:13.726Z,39.25
2023-05-05T15:46:42.467Z,39.21
2023-05-05T15:49:11.490Z,39.22
2023-05-05T15:51:40.162Z,39.55
2023-05-05T15:54:09.184Z,39.63
2023-05-05T15:56:37.951Z,39.72
2023-05-05T15:59:07.701Z,39.46
2023-05-05T16:01:36.610Z,39.64
2023-05-05T16:04:05.789Z,39.32
2023-05-05T16:06:34.582Z,39.47
2023-05-05T16:09:04.086Z,39.63
2023-05-05T16:11:32.772Z,39.44
2023-05-05T16:14:01.828Z,39.20
2023-05-05T16:16:30.935Z,39.03
2023-05-05T16:18:59.862Z,38.51
2023-05-05T16:21:28.655Z,38.43
2023-05-05T16:23:57.878Z,38.28
2023-05-05T16:26:26.539Z,38.28
2023-05-05T16:28:55.625Z,38.28
2023-05-05T16:31:24.333Z,38.26
2023-05-05T16:33:53.356Z,38.39
2023-05-05T16:36:22.139Z,38.04
2023-05-05T16:38:51.152Z,37.90
2023-05-05T16:41:19.966Z,38.32
2023-05-05T16:43:49.245Z,38.30
2023-05-05T16:46:18.328Z,38.37
2023-05-05T16:48:47.549Z,38.62
2023-05-05T16:51:16.188Z,38.72
2023-05-05T16:53:46.613Z,38.90
2023-05-05T16:56:16.546Z,38.93
2023-05-05T16:58:45.589Z,38.88
2023-05-05T17:01:14.302Z,38.99
2023-05-05T17:03:43.383Z,39.12
2023-05-05T17:06:13.253Z,39.35
2023-05-05T17:08:42.403Z,39.41
2023-05-05T17:11:11.900Z,39.40
2023-05-05T17:13:41.114Z,39.61
2023-05-05T17:16:09.806Z,39.75
2023-05-05T17:18:38.810Z,39.49
2023-05-05T17:21:07.633Z,39.35
2023-05-05T17:23:36.801Z,39.39
2023-05-05T17:26:05.505Z,39.28
2023-05-05T17:28:34.536Z,39.42
2023-05-05T17:31:03.207Z,39.67
2023-05-05T17:33:32.402Z,39.70
2023-05-05T17:36:01.032Z,39.51
2023-05-05T17:38:30.082Z,39.55
2023-05-05T17:40:58.705Z,39.51
2023-05-05T17:43:27.766Z,39.75
2023-05-05T17:45:56.533Z,39.81
2023-05-05T17:48:26.589Z,40.15
2023-05-05T17:50:55.349Z,40.31
2023-05-05T17:53:24.446Z,40.53
2023-05-05T17:55:53.143Z,40.74
2023-05-05T17:58:22.517Z,40.81
2023-05-05T18:00:51.497Z,41.13
2023-05-05T18:03:20.780Z,41.46
2023-05-05T18:05:49.559Z,41.63
2023-05-05T18:08:18.825Z,41.60
2023-05-05T18:10:47.487Z,41.66
2023-05-05T18:13:16.504Z,41.39
2023-05-05T18:15:46.611Z,41.47
2023-05-05T18:18:15.964Z,41.53
2023-05-05T18:20:44.608Z,41.61
2023-05-05T18:23:13.999Z,41.86
2023-05-05T18:25:42.788Z,41.98
2023-05-05T18:28:12.494Z,42.00
2023-05-05T18:30:41.327Z,42.14
2023-05-05T18:33:10.251Z,42.27
2023-05-05T18:35:39.013Z,42.41
2023-05-05T18:38:08.059Z,42.57
2023-05-05T18:40:36.729Z,42.66
2023-05-05T18:43:05.771Z,42.83
2023-05-05T18:45:34.544Z,42.99
2023-05-05T18:48:03.742Z,43.19
2023-05-05T18:50:33.727Z,43.30
2023-05-05T18:53:02.920Z,43.47
2023-05-05T18:55:31.636Z,43.64
2023-05-05T18:58:00.713Z,43.73
2023-05-05T19:00:29.834Z,43.88
2023-05-05T19:02:58.719Z,43.88
2023-05-05T19:05:28.216Z,44.10
2023-05-05T19:07:57.011Z,44.20
2023-05-05T19:10:26.354Z,44.36
2023-05-05T19:12:55.831Z,44.49
2023-05-05T19:15:25.368Z,44.47
2023-05-05T19:17:55.242Z,44.56
2023-05-05T19:20:25.823Z,44.65
2023-05-05T19:22:56.244Z,44.75
2023-05-05T19:25:25.319Z,44.93
2023-05-05T19:27:54.858Z,44.88
2023-05-05T19:30:25.266Z,45.04
2023-05-05T19:32:55.183Z,45.20
2023-05-05T19:35:25.688Z,45.27
2023-05-05T19:37:56.830Z,45.29
2023-05-05T19:40:27.128Z,45.37
2023-05-05T19:42:57.258Z,45.44
2023-05-05T19:45:26.528Z,45.32
2023-05-05T19:47:57.716Z,45.58
2023-05-05T19:50:28.188Z,45.74
2023-05-05T19:52:58.355Z,45.84
2023-05-05T19:55:27.680Z,46.11
2023-05-05T19:57:56.366Z,46.24
2023-05-05T20:00:25.367Z,46.45
2023-05-05T20:02:54.093Z,46.16
2023-05-05T20:05:23.305Z,46.27
2023-05-05T20:07:52.153Z,46.26
2023-05-05T20:10:21.266Z,46.23
2023-05-05T20:12:50.504Z,46.42
2023-05-05T20:15:20.575Z,46.43
2023-05-05T20:17:49.326Z,46.42
2023-05-05T20:20:20.715Z,46.50
2023-05-05T20:22:49.735Z,46.64
2023-05-05T20:25:19.065Z,46.66
2023-05-05T20:27:47.817Z,46.53
2023-05-05T20:30:16.919Z,46.97
2023-05-05T20:32:45.790Z,47.06
2023-05-05T20:35:15.094Z,46.95
2023-05-05T20:37:45.302Z,47.17
2023-05-05T20:40:14.639Z,47.04
2023-05-05T20:42:43.437Z,47.06
2023-05-05T20:45:12.755Z,47.09
2023-05-05T20:47:41.522Z,47.16
2023-05-05T20:50:11.825Z,47.01
2023-05-05T20:52:40.799Z,46.83
2023-05-05T20:55:10.033Z,46.64
2023-05-05T20:57:38.868Z,46.60
2023-05-05T21:00:09.288Z,46.66
2023-05-05T21:02:38.447Z,46.52
2023-05-05T21:05:08.439Z,46.59
2023-05-05T21:07:37.285Z,46.40
2023-05-05T21:10:07.180Z,46.48
2023-05-05T21:12:36.210Z,46.43
2023-05-05T21:15:05.763Z,46.35
2023-05-05T21:17:34.828Z,46.44
2023-05-05T21:20:04.166Z,46.38
2023-05-05T21:22:32.859Z,46.42
2023-05-05T21:25:19.194Z,46.50
2023-05-05T21:27:48.687Z,46.30
2023-05-05T21:30:18.000Z,46.38
2023-05-05T21:32:46.975Z,46.37
2023-05-05T21:35:16.172Z,46.29
2023-05-05T21:37:44.912Z,46.50
2023-05-05T21:40:16.523Z,46.30
2023-05-05T21:42:45.198Z,46.58
2023-05-05T21:45:14.341Z,46.64
2023-05-05T21:47:43.205Z,46.40
2023-05-05T21:50:13.109Z,46.69
2023-05-05T21:52:41.999Z,46.46
2023-05-05T21:55:11.200Z,46.36
2023-05-05T21:57:39.890Z,46.43
2023-05-05T22:00:10.086Z,46.47
2023-05-05T22:02:41.715Z,46.51
2023-05-05T22:05:10.990Z,46.60
2023-05-05T22:07:40.693Z,46.85
2023-05-05T22:10:10.356Z,46.96
2023-05-05T22:12:39.237Z,46.68
2023-05-05T22:15:09.126Z,46.83
2023-05-05T22:17:38.131Z,46.78
2023-05-05T22:20:09.387Z,46.91
2023-05-05T22:22:38.470Z,47.14
2023-05-05T22:25:08.216Z,47.08
2023-05-05T22:27:37.201Z,47.07
2023-05-05T22:30:06.833Z,46.95
2023-05-05T22:32:35.722Z,47.04
2023-05-05T22:35:05.504Z,47.22
2023-05-05T22:37:34.559Z,47.01
2023-05-05T22:40:03.856Z,47.19
2023-05-05T22:42:32.671Z,47.20
2023-05-05T22:45:01.768Z,47.14
2023-05-05T22:47:31.250Z,47.24
2023-05-05T22:50:00.460Z,47.27
2023-05-05T22:52:29.275Z,47.24
2023-05-05T22:54:58.665Z,47.48
2023-05-05T22:57:27.429Z,47.29
2023-05-05T22:59:56.493Z,47.35
2023-05-05T23:02:26.839Z,47.26
2023-05-05T23:04:56.090Z,47.41
2023-05-05T23:07:24.845Z,47.38
2023-05-05T23:09:54.015Z,47.46
2023-05-05T23:12:22.619Z,47.44
2023-05-05T23:14:51.737Z,47.31
2023-05-05T23:17:20.809Z,47.45
2023-05-05T23:19:50.186Z,47.53
2023-05-05T23:22:18.969Z,47.58
2023-05-05T23:24:48.156Z,47.42
2023-05-05T23:27:16.878Z,47.66
2023-05-05T23:29:45.842Z,47.65
2023-05-05T23:32:14.645Z,47.48
2023-05-05T23:34:43.604Z,47.46
2023-05-05T23:37:14.667Z,47.48
2023-05-05T23:39:43.768Z,47.54
2023-05-05T23:42:12.502Z,47.54
2023-05-05T23:44:41.588Z,47.63
2023-05-05T23:47:10.425Z,47.69
2023-05-05T23:49:39.764Z,47.65
2023-05-05T23:52:08.463Z,47.46
2023-05-05T23:54:37.456Z,47.65
2023-05-05T23:57:06.236Z,47.71
2023-05-05T23:59:35.377Z,47.42
